createdAt,value
2023-02-12T00:00:56.920Z,97.03
2023-02-12T00:01:56.914Z,97.03
2023-02-12T00:02:56.847Z,96.98
2023-02-12T00:03:56.873Z,97.03
2023-02-12T00:04:56.774Z,96.89
2023-02-12T00:05:56.935Z,97.03
2023-02-12T00:06:56.691Z,96.98
2023-02-12T00:07:56.668Z,97.03
2023-02-12T00:08:56.628Z,96.89
2023-02-12T00:09:56.590Z,96.79
2023-02-12T00:10:56.550Z,96.79
2023-02-12T00:11:56.523Z,96.79
2023-02-12T00:12:56.475Z,97.03
2023-02-12T00:13:56.448Z,96.89
2023-02-12T00:14:56.402Z,97.03
2023-02-12T00:15:56.704Z,96.84
2023-02-12T00:16:56.337Z,96.70
2023-02-12T00:17:56.295Z,96.79
2023-02-12T00:18:56.258Z,96.84
2023-02-12T00:19:56.218Z,96.84
2023-02-12T00:20:56.203Z,96.60
2023-02-12T00:21:56.151Z,96.84
2023-02-12T00:22:56.115Z,96.70
2023-02-12T00:23:56.078Z,96.79
2023-02-12T00:24:56.040Z,96.79
2023-02-12T00:25:56.359Z,96.65
2023-02-12T00:26:55.962Z,96.79
2023-02-12T00:27:55.930Z,96.79
2023-02-12T00:28:55.893Z,96.65
2023-02-12T00:29:55.852Z,96.70
2023-02-12T00:30:55.953Z,96.60
2023-02-12T00:31:55.896Z,96.60
2023-02-12T00:32:55.748Z,96.79
2023-02-12T00:33:55.702Z,96.70
2023-02-12T00:34:55.674Z,96.41
2023-02-12T00:35:55.989Z,96.70
2023-02-12T00:36:55.596Z,96.60
2023-02-12T00:37:55.561Z,96.51
2023-02-12T00:38:55.550Z,96.60
2023-02-12T00:39:55.487Z,96.79
2023-02-12T00:40:55.481Z,96.41
2023-02-12T00:41:55.409Z,96.60
2023-02-12T00:42:55.372Z,96.60
2023-02-12T00:43:55.342Z,96.79
2023-02-12T00:44:55.303Z,96.79
2023-02-12T00:45:55.808Z,96.70
2023-02-12T00:46:55.227Z,96.70
2023-02-12T00:47:55.195Z,96.94
2023-02-12T00:48:55.154Z,96.60
2023-02-12T00:49:55.121Z,96.79
2023-02-12T00:50:55.079Z,96.79
2023-02-12T00:51:55.041Z,96.70
2023-02-12T00:52:55.006Z,96.70
2023-02-12T00:53:54.973Z,96.70
2023-02-12T00:54:54.937Z,96.60
2023-02-12T00:55:55.124Z,96.70
2023-02-12T00:56:54.875Z,96.41
2023-02-12T00:57:54.829Z,96.70
2023-02-12T00:58:54.792Z,96.79
2023-02-12T00:59:54.748Z,96.41
2023-02-12T01:00:54.712Z,96.60
2023-02-12T01:01:54.718Z,96.41
2023-02-12T01:02:54.649Z,96.79
2023-02-12T01:03:54.606Z,96.41
2023-02-12T01:04:54.683Z,96.60
2023-02-12T01:05:54.910Z,96.51
2023-02-12T01:06:54.492Z,96.70
2023-02-12T01:07:54.461Z,96.89
2023-02-12T01:08:54.422Z,96.70
2023-02-12T01:09:54.390Z,96.51
2023-02-12T01:10:54.349Z,96.60
2023-02-12T01:11:54.330Z,96.41
2023-02-12T01:12:54.277Z,96.41
2023-02-12T01:13:54.242Z,96.41
2023-02-12T01:14:54.196Z,96.60
2023-02-12T01:15:54.555Z,96.79
2023-02-12T01:16:54.135Z,96.41
2023-02-12T01:17:54.088Z,96.51
2023-02-12T01:18:55.941Z,96.60
2023-02-12T01:19:54.033Z,96.51
2023-02-12T01:20:53.982Z,96.70
2023-02-12T01:21:53.945Z,96.79
2023-02-12T01:22:53.917Z,96.41
2023-02-12T01:23:53.878Z,96.70
2023-02-12T01:24:53.834Z,96.41
2023-02-12T01:25:54.211Z,96.79
2023-02-12T01:26:53.760Z,96.41
2023-02-12T01:27:53.731Z,96.60
2023-02-12T01:28:53.689Z,96.70
2023-02-12T01:29:53.662Z,96.70
2023-02-12T01:30:53.682Z,96.79
2023-02-12T01:31:53.712Z,96.41
2023-02-12T01:32:53.547Z,96.60
2023-02-12T01:33:53.521Z,96.41
2023-02-12T01:34:53.464Z,96.79
2023-02-12T01:35:53.767Z,96.41
2023-02-12T01:36:53.399Z,96.41
2023-02-12T01:37:53.357Z,96.41
2023-02-12T01:38:53.337Z,96.41
2023-02-12T01:39:53.280Z,96.60
2023-02-12T01:40:53.255Z,96.98
2023-02-12T01:41:53.204Z,97.08
2023-02-12T01:42:53.177Z,96.98
2023-02-12T01:43:53.137Z,96.98
2023-02-12T01:44:53.095Z,96.98
2023-02-12T01:45:53.528Z,97.08
2023-02-12T01:46:53.075Z,97.36
2023-02-12T01:47:52.983Z,97.08
2023-02-12T01:48:52.951Z,96.98
2023-02-12T01:49:52.916Z,97.08
2023-02-12T01:50:52.872Z,97.08
2023-02-12T01:51:52.842Z,96.79
2023-02-12T01:52:52.808Z,96.98
2023-02-12T01:53:52.764Z,96.98
2023-02-12T01:54:53.972Z,96.79
2023-02-12T01:55:52.972Z,96.98
2023-02-12T01:56:52.660Z,96.60
2023-02-12T01:57:52.620Z,96.79
2023-02-12T01:58:52.581Z,96.79
2023-02-12T01:59:52.572Z,96.79
2023-02-12T02:00:52.508Z,97.08
2023-02-12T02:01:52.624Z,96.79
2023-02-12T02:02:52.447Z,96.79
2023-02-12T02:03:52.402Z,96.79
2023-02-12T02:04:52.362Z,97.08
2023-02-12T02:05:52.322Z,96.79
2023-02-12T02:06:52.369Z,96.70
2023-02-12T02:07:52.255Z,96.70
2023-02-12T02:08:52.213Z,96.79
2023-02-12T02:09:52.170Z,97.08
2023-02-12T02:10:52.139Z,96.79
2023-02-12T02:11:52.109Z,96.60
2023-02-12T02:12:52.067Z,96.98
2023-02-12T02:13:52.032Z,96.70
2023-02-12T02:14:51.987Z,96.60
2023-02-12T02:15:51.956Z,96.98
2023-02-12T02:16:51.980Z,96.79
2023-02-12T02:17:51.876Z,97.17
2023-02-12T02:18:51.856Z,97.27
2023-02-12T02:19:51.800Z,97.17
2023-02-12T02:20:51.765Z,96.60
2023-02-12T02:21:51.737Z,96.70
2023-02-12T02:22:51.709Z,96.70
2023-02-12T02:23:51.649Z,96.79
2023-02-12T02:24:51.627Z,97.08
2023-02-12T02:25:51.606Z,97.08
2023-02-12T02:26:51.544Z,97.08
2023-02-12T02:27:51.505Z,96.98
2023-02-12T02:28:51.490Z,97.08
2023-02-12T02:29:51.432Z,96.79
2023-02-12T02:30:51.427Z,97.08
2023-02-12T02:31:51.420Z,96.79
2023-02-12T02:32:51.318Z,96.79
2023-02-12T02:33:51.287Z,96.70
2023-02-12T02:34:51.257Z,96.98
2023-02-12T02:35:51.209Z,96.60
2023-02-12T02:37:00.457Z,96.70
2023-02-12T02:37:51.149Z,97.17
2023-02-12T02:38:51.101Z,96.98
2023-02-12T02:39:51.110Z,96.79
2023-02-12T02:40:51.025Z,96.70
2023-02-12T02:41:51.010Z,96.98
2023-02-12T02:42:50.952Z,96.60
2023-02-12T02:43:50.915Z,97.17
2023-02-12T02:44:50.925Z,97.17
2023-02-12T02:45:50.851Z,96.89
2023-02-12T02:46:50.857Z,96.60
2023-02-12T02:47:50.767Z,97.17
2023-02-12T02:48:50.744Z,97.17
2023-02-12T02:49:50.692Z,97.17
2023-02-12T02:50:50.656Z,96.98
2023-02-12T02:51:50.622Z,97.17
2023-02-12T02:52:50.580Z,96.98
2023-02-12T02:53:50.556Z,97.17
2023-02-12T02:54:50.511Z,96.70
2023-02-12T02:55:50.469Z,96.89
2023-02-12T02:56:50.436Z,97.17
2023-02-12T02:57:50.395Z,96.79
2023-02-12T02:58:50.359Z,96.79
2023-02-12T02:59:50.337Z,96.98
2023-02-12T03:00:50.351Z,96.98
2023-02-12T03:01:50.251Z,97.17
2023-02-12T03:02:50.267Z,96.98
2023-02-12T03:03:50.177Z,97.08
2023-02-12T03:04:50.145Z,97.17
2023-02-12T03:05:50.107Z,96.98
2023-02-12T03:06:50.073Z,96.89
2023-02-12T03:07:50.047Z,96.79
2023-02-12T03:08:49.998Z,97.17
2023-02-12T03:09:49.966Z,96.98
2023-02-12T03:10:49.922Z,97.17
2023-02-12T03:11:49.925Z,96.79
2023-02-12T03:12:49.842Z,96.98
2023-02-12T03:13:49.807Z,96.89
2023-02-12T03:14:49.773Z,96.98
2023-02-12T03:15:49.735Z,96.98
2023-02-12T03:16:49.748Z,96.98
2023-02-12T03:17:49.667Z,96.98
2023-02-12T03:18:49.623Z,97.08
2023-02-12T03:19:49.590Z,96.98
2023-02-12T03:20:49.550Z,96.89
2023-02-12T03:21:49.514Z,97.17
2023-02-12T03:22:49.481Z,97.17
2023-02-12T03:23:49.454Z,96.79
2023-02-12T03:24:49.405Z,97.36
2023-02-12T03:25:49.380Z,97.17
2023-02-12T03:26:49.333Z,96.70
2023-02-12T03:27:49.296Z,96.70
2023-02-12T03:28:49.261Z,96.79
2023-02-12T03:29:49.221Z,97.17
2023-02-12T03:30:49.215Z,96.98
2023-02-12T03:31:49.188Z,97.17
2023-02-12T03:32:49.114Z,96.98
2023-02-12T03:33:49.070Z,96.98
2023-02-12T03:34:49.035Z,96.98
2023-02-12T03:35:48.996Z,97.17
2023-02-12T03:36:48.974Z,97.08
2023-02-12T03:37:48.932Z,96.79
2023-02-12T03:38:48.892Z,96.98
2023-02-12T03:39:48.862Z,96.79
2023-02-12T03:40:48.813Z,97.08
2023-02-12T03:41:48.782Z,96.79
2023-02-12T03:42:48.746Z,97.08
2023-02-12T03:43:48.736Z,96.70
2023-02-12T03:44:48.675Z,96.79
2023-02-12T03:45:48.664Z,96.98
2023-02-12T03:47:48.566Z,96.98
2023-02-12T03:48:48.527Z,96.31
2023-02-12T03:49:48.484Z,97.17
2023-02-12T03:50:48.450Z,96.98
2023-02-12T03:51:48.411Z,96.98
2023-02-12T03:52:48.372Z,96.98
2023-02-12T03:54:09.329Z,96.98
2023-02-12T03:54:48.305Z,96.98
2023-02-12T03:55:48.268Z,96.98
2023-02-12T03:56:48.220Z,96.98
2023-02-12T03:57:48.191Z,97.08
2023-02-12T03:58:48.150Z,96.89
2023-02-12T04:00:09.106Z,97.08
2023-02-12T04:00:48.095Z,96.98
2023-02-12T04:01:48.253Z,97.08
2023-02-12T04:02:48.009Z,97.17
2023-02-12T04:03:47.959Z,96.98
2023-02-12T04:04:47.922Z,96.98
2023-02-12T04:06:08.880Z,96.98
2023-02-12T04:06:47.851Z,97.08
2023-02-12T04:07:47.812Z,96.98
2023-02-12T04:08:47.771Z,96.79
2023-02-12T04:09:47.737Z,96.98
2023-02-12T04:10:47.724Z,96.60
2023-02-12T04:12:08.662Z,96.98
2023-02-12T04:12:47.625Z,96.79
2023-02-12T04:13:47.632Z,97.17
2023-02-12T04:14:47.549Z,97.08
2023-02-12T04:15:47.515Z,96.98
2023-02-12T04:16:47.551Z,96.98
2023-02-12T04:18:08.432Z,96.98
2023-02-12T04:18:47.403Z,96.79
2023-02-12T04:19:47.369Z,97.08
2023-02-12T04:20:47.328Z,96.98
2023-02-12T04:21:47.295Z,96.98
2023-02-12T04:22:47.268Z,97.08
2023-02-12T04:24:08.217Z,97.08
2023-02-12T04:24:47.179Z,96.89
2023-02-12T04:25:47.141Z,96.51
2023-02-12T04:26:47.104Z,96.98
2023-02-12T04:27:47.069Z,96.98
2023-02-12T04:28:47.030Z,97.17
2023-02-12T04:30:07.996Z,96.98
2023-02-12T04:30:47.024Z,96.98
2023-02-12T04:31:47.040Z,96.98
2023-02-12T04:32:46.885Z,97.08
2023-02-12T04:33:46.846Z,96.98
2023-02-12T04:34:46.816Z,96.98
2023-02-12T04:36:07.795Z,96.98
2023-02-12T04:36:46.736Z,96.98
2023-02-12T04:37:46.738Z,97.17
2023-02-12T04:38:46.667Z,97.17
2023-02-12T04:39:46.631Z,97.17
2023-02-12T04:40:46.592Z,96.79
2023-02-12T04:42:07.563Z,96.98
2023-02-12T04:42:46.521Z,97.17
2023-02-12T04:43:46.483Z,97.08
2023-02-12T04:44:46.449Z,97.08
2023-02-12T04:45:46.431Z,97.17
2023-02-12T04:46:46.370Z,97.08
2023-02-12T04:48:07.335Z,96.98
2023-02-12T04:48:46.296Z,97.17
2023-02-12T04:49:46.260Z,96.98
2023-02-12T04:50:46.223Z,96.89
2023-02-12T04:51:46.187Z,97.08
2023-02-12T04:52:46.145Z,96.98
2023-02-12T04:54:07.107Z,96.26
2023-02-12T04:54:46.076Z,97.22
2023-02-12T04:55:46.062Z,96.55
2023-02-12T04:56:46.018Z,96.60
2023-02-12T04:57:45.963Z,96.89
2023-02-12T04:58:45.935Z,96.70
2023-02-12T05:00:06.891Z,97.46
2023-02-12T05:00:45.863Z,97.08
2023-02-12T05:01:45.980Z,97.03
2023-02-12T05:02:45.801Z,97.13
2023-02-12T05:03:45.741Z,96.46
2023-02-12T05:04:45.733Z,96.84
2023-02-12T05:06:06.661Z,97.22
2023-02-12T05:06:45.633Z,96.55
2023-02-12T05:07:45.591Z,97.17
2023-02-12T05:08:45.557Z,96.94
2023-02-12T05:09:45.518Z,96.94
2023-02-12T05:10:45.482Z,97.03
2023-02-12T05:12:06.442Z,97.22
2023-02-12T05:12:45.409Z,97.17
2023-02-12T05:13:45.374Z,96.98
2023-02-12T05:14:45.332Z,97.08
2023-02-12T05:15:45.396Z,96.51
2023-02-12T05:16:45.281Z,96.89
2023-02-12T05:18:06.219Z,97.17
2023-02-12T05:18:45.202Z,97.55
2023-02-12T05:19:45.161Z,97.17
2023-02-12T05:20:45.117Z,96.51
2023-02-12T05:21:45.074Z,96.60
2023-02-12T05:22:45.050Z,96.51
2023-02-12T05:24:05.994Z,97.08
2023-02-12T05:24:44.965Z,96.89
2023-02-12T05:25:44.925Z,97.08
2023-02-12T05:26:44.890Z,97.17
2023-02-12T05:27:44.855Z,96.51
2023-02-12T05:28:44.811Z,97.08
2023-02-12T05:30:05.769Z,96.98
2023-02-12T05:30:44.809Z,96.98
2023-02-12T05:31:44.802Z,97.17
2023-02-12T05:32:44.666Z,96.98
2023-02-12T05:33:44.654Z,97.17
2023-02-12T05:34:44.594Z,97.08
2023-02-12T05:36:05.548Z,96.98
2023-02-12T05:36:44.513Z,96.98
2023-02-12T05:37:44.480Z,96.98
2023-02-12T05:38:44.440Z,97.08
2023-02-12T05:39:44.430Z,97.08
2023-02-12T05:40:44.380Z,96.98
2023-02-12T05:42:05.325Z,97.08
2023-02-12T05:42:44.290Z,97.17
2023-02-12T05:43:44.258Z,96.79
2023-02-12T05:44:44.217Z,97.08
2023-02-12T05:45:44.194Z,97.27
2023-02-12T05:46:44.304Z,96.31
2023-02-12T05:48:05.106Z,97.08
2023-02-12T05:48:44.092Z,97.08
2023-02-12T05:49:44.040Z,97.46
2023-02-12T05:50:43.993Z,97.55
2023-02-12T05:51:43.965Z,97.46
2023-02-12T05:52:43.917Z,97.08
2023-02-12T05:54:04.883Z,96.60
2023-02-12T05:54:43.842Z,97.08
2023-02-12T05:55:43.814Z,97.08
2023-02-12T05:56:43.784Z,97.08
2023-02-12T05:57:43.737Z,96.60
2023-02-12T05:58:43.701Z,97.46
2023-02-12T06:00:04.666Z,96.98
2023-02-12T06:00:43.623Z,97.08
2023-02-12T06:01:43.587Z,96.46
2023-02-12T06:02:43.604Z,97.46
2023-02-12T06:03:43.567Z,97.08
2023-02-12T06:04:43.477Z,97.08
2023-02-12T06:06:04.436Z,97.13
2023-02-12T06:06:43.408Z,96.70
2023-02-12T06:07:43.360Z,96.70
2023-02-12T06:08:43.322Z,97.03
2023-02-12T06:09:43.285Z,96.98
2023-02-12T06:10:43.248Z,96.60
2023-02-12T06:12:04.210Z,96.41
2023-02-12T06:12:43.175Z,97.03
2023-02-12T06:13:43.195Z,96.55
2023-02-12T06:14:43.110Z,96.55
2023-02-12T06:15:43.078Z,97.50
2023-02-12T06:16:43.033Z,97.60
2023-02-12T06:18:03.989Z,96.84
2023-02-12T06:18:42.955Z,97.03
2023-02-12T06:19:42.919Z,96.94
2023-02-12T06:20:42.903Z,97.03
2023-02-12T06:21:42.845Z,97.03
2023-02-12T06:22:42.802Z,96.26
2023-02-12T06:24:03.770Z,96.26
2023-02-12T06:24:42.735Z,96.55
2023-02-12T06:25:42.690Z,97.03
2023-02-12T06:26:42.656Z,97.13
2023-02-12T06:27:42.618Z,97.50
2023-02-12T06:28:42.584Z,96.55
2023-02-12T06:30:03.557Z,96.55
2023-02-12T06:30:42.581Z,97.13
2023-02-12T06:31:42.619Z,96.55
2023-02-12T06:32:42.459Z,97.50
2023-02-12T06:33:42.393Z,96.94
2023-02-12T06:34:42.362Z,97.41
2023-02-12T06:36:03.317Z,96.55
2023-02-12T06:36:42.283Z,96.26
2023-02-12T06:37:42.261Z,97.50
2023-02-12T06:38:42.219Z,97.50
2023-02-12T06:39:42.181Z,97.50
2023-02-12T06:40:42.146Z,96.55
2023-02-12T06:42:03.096Z,97.41
2023-02-12T06:42:42.063Z,96.55
2023-02-12T06:43:42.034Z,96.55
2023-02-12T06:44:41.997Z,96.55
2023-02-12T06:45:41.961Z,96.55
2023-02-12T06:46:42.025Z,97.22
2023-02-12T06:48:02.872Z,96.84
2023-02-12T06:48:41.872Z,97.41
2023-02-12T06:49:41.864Z,96.98
2023-02-12T06:50:41.769Z,97.08
2023-02-12T06:51:41.730Z,97.41
2023-02-12T06:52:41.699Z,96.65
2023-02-12T06:54:02.661Z,97.03
2023-02-12T06:54:41.624Z,96.70
2023-02-12T06:55:41.582Z,96.46
2023-02-12T06:56:41.548Z,96.65
2023-02-12T06:57:41.507Z,96.65
2023-02-12T06:58:41.474Z,96.94
2023-02-12T07:00:02.466Z,97.03
2023-02-12T07:00:41.428Z,97.13
2023-02-12T07:01:41.361Z,96.65
2023-02-12T07:02:41.320Z,97.03
2023-02-12T07:03:41.351Z,97.13
2023-02-12T07:04:41.275Z,97.03
2023-02-12T07:06:02.207Z,97.03
2023-02-12T07:06:41.190Z,97.08
2023-02-12T07:07:41.142Z,96.36
2023-02-12T07:08:41.101Z,97.22
2023-02-12T07:09:41.072Z,97.03
2023-02-12T07:10:41.029Z,96.94
2023-02-12T07:12:01.983Z,96.51
2023-02-12T07:12:40.982Z,97.03
2023-02-12T07:13:40.915Z,96.46
2023-02-12T07:14:40.903Z,97.03
2023-02-12T07:15:40.840Z,97.03
2023-02-12T07:16:40.826Z,97.13
2023-02-12T07:18:01.760Z,97.03
2023-02-12T07:18:40.747Z,97.22
2023-02-12T07:19:40.692Z,96.55
2023-02-12T07:20:40.670Z,96.84
2023-02-12T07:21:40.614Z,96.94
2023-02-12T07:22:40.583Z,96.74
2023-02-12T07:24:01.535Z,96.46
2023-02-12T07:24:40.504Z,96.55
2023-02-12T07:25:40.471Z,96.55
2023-02-12T07:26:40.436Z,96.36
2023-02-12T07:27:40.394Z,96.46
2023-02-12T07:28:40.458Z,97.50
2023-02-12T07:30:01.321Z,97.46
2023-02-12T07:30:42.582Z,96.94
2023-02-12T07:31:40.265Z,97.08
2023-02-12T07:32:40.214Z,96.70
2023-02-12T07:33:40.173Z,96.60
2023-02-12T07:34:40.187Z,97.17
2023-02-12T07:36:01.134Z,97.08
2023-02-12T07:36:40.057Z,96.98
2023-02-12T07:37:40.027Z,97.17
2023-02-12T07:38:40.111Z,97.08
2023-02-12T07:39:39.947Z,97.08
2023-02-12T07:40:39.908Z,96.51
2023-02-12T07:42:00.879Z,97.17
2023-02-12T07:42:39.835Z,97.08
2023-02-12T07:43:39.797Z,97.08
2023-02-12T07:44:39.765Z,96.98
2023-02-12T07:45:39.768Z,97.08
2023-02-12T07:46:39.705Z,96.70
2023-02-12T07:48:00.650Z,97.27
2023-02-12T07:48:39.628Z,97.08
2023-02-12T07:49:39.575Z,97.08
2023-02-12T07:50:39.541Z,96.60
2023-02-12T07:51:39.591Z,96.98
2023-02-12T07:52:39.466Z,96.98
2023-02-12T07:54:00.424Z,96.98
2023-02-12T07:54:39.399Z,97.17
2023-02-12T07:55:39.352Z,97.17
2023-02-12T07:56:39.326Z,97.17
2023-02-12T07:57:39.379Z,97.08
2023-02-12T07:58:39.257Z,96.89
2023-02-12T08:00:00.199Z,96.98
2023-02-12T08:00:39.169Z,96.98
2023-02-12T08:01:39.149Z,97.08
2023-02-12T08:02:39.187Z,96.98
2023-02-12T08:03:39.063Z,97.17
2023-02-12T08:04:39.061Z,97.17
2023-02-12T08:05:59.979Z,97.08
2023-02-12T08:06:38.950Z,96.60
2023-02-12T08:07:38.910Z,96.89
2023-02-12T08:08:38.885Z,96.70
2023-02-12T08:09:38.841Z,96.70
2023-02-12T08:10:38.795Z,96.98
2023-02-12T08:11:59.772Z,96.60
2023-02-12T08:12:38.734Z,96.79
2023-02-12T08:13:38.712Z,96.60
2023-02-12T08:14:38.652Z,96.60
2023-02-12T08:15:38.620Z,96.60
2023-02-12T08:16:38.625Z,96.60
2023-02-12T08:17:59.547Z,96.60
2023-02-12T08:18:38.537Z,97.08
2023-02-12T08:19:38.462Z,96.98
2023-02-12T08:20:38.426Z,96.98
2023-02-12T08:21:38.391Z,96.79
2023-02-12T08:22:38.499Z,96.98
2023-02-12T08:23:59.312Z,97.08
2023-02-12T08:24:38.294Z,97.08
2023-02-12T08:25:38.245Z,97.08
2023-02-12T08:26:38.205Z,96.98
2023-02-12T08:27:38.170Z,97.08
2023-02-12T08:28:38.216Z,96.98
2023-02-12T08:29:59.107Z,96.98
2023-02-12T08:30:38.114Z,97.08
2023-02-12T08:31:38.079Z,96.98
2023-02-12T08:32:37.987Z,96.60
2023-02-12T08:33:37.964Z,96.98
2023-02-12T08:34:37.912Z,96.98
2023-02-12T08:36:00.131Z,96.79
2023-02-12T08:36:37.842Z,96.98
2023-02-12T08:37:37.812Z,97.13
2023-02-12T08:38:37.762Z,96.79
2023-02-12T08:39:37.732Z,96.98
2023-02-12T08:40:37.713Z,96.79
2023-02-12T08:41:58.652Z,97.03
2023-02-12T08:42:37.614Z,96.36
2023-02-12T08:43:37.582Z,96.84
2023-02-12T08:44:37.541Z,96.84
2023-02-12T08:45:37.552Z,96.65
2023-02-12T08:46:37.482Z,97.22
2023-02-12T08:47:58.430Z,97.03
2023-02-12T08:48:37.397Z,96.84
2023-02-12T08:49:37.357Z,96.65
2023-02-12T08:50:37.335Z,96.84
2023-02-12T08:51:37.288Z,96.75
2023-02-12T08:52:37.242Z,96.84
2023-02-12T08:53:58.209Z,96.79
2023-02-12T08:54:37.176Z,96.51
2023-02-12T08:55:37.132Z,96.79
2023-02-12T08:56:37.095Z,97.17
2023-02-12T08:57:37.063Z,97.03
2023-02-12T08:58:37.026Z,97.13
2023-02-12T08:59:57.979Z,97.03
2023-02-12T09:00:39.534Z,97.03
2023-02-12T09:01:36.979Z,97.22
2023-02-12T09:02:36.926Z,96.75
2023-02-12T09:03:36.850Z,96.84
2023-02-12T09:04:36.803Z,96.65
2023-02-12T09:05:58.114Z,96.75
2023-02-12T09:06:36.726Z,96.84
2023-02-12T09:07:36.718Z,96.84
2023-02-12T09:08:36.657Z,96.84
2023-02-12T09:09:36.619Z,96.84
2023-02-12T09:10:36.582Z,96.84
2023-02-12T09:11:57.541Z,97.22
2023-02-12T09:12:36.509Z,96.55
2023-02-12T09:13:36.471Z,96.17
2023-02-12T09:14:36.433Z,96.17
2023-02-12T09:15:36.401Z,97.03
2023-02-12T09:16:36.422Z,96.84
2023-02-12T09:17:57.329Z,96.94
2023-02-12T09:18:36.295Z,96.75
2023-02-12T09:19:36.258Z,96.75
2023-02-12T09:20:36.218Z,96.55
2023-02-12T09:21:36.184Z,96.89
2023-02-12T09:22:36.144Z,96.65
2023-02-12T09:23:57.131Z,96.84
2023-02-12T09:24:36.071Z,96.80
2023-02-12T09:25:36.043Z,96.98
2023-02-12T09:26:35.999Z,97.08
2023-02-12T09:27:35.963Z,97.08
2023-02-12T09:28:36.036Z,96.98
2023-02-12T09:29:56.897Z,97.27
2023-02-12T09:30:35.874Z,96.98
2023-02-12T09:31:35.955Z,96.98
2023-02-12T09:32:35.782Z,97.08
2023-02-12T09:33:35.757Z,97.17
2023-02-12T09:34:35.723Z,96.22
2023-02-12T09:35:57.048Z,97.17
2023-02-12T09:36:35.637Z,96.22
2023-02-12T09:37:35.615Z,96.32
2023-02-12T09:38:35.566Z,96.32
2023-02-12T09:39:35.531Z,96.27
2023-02-12T09:40:35.497Z,96.22
2023-02-12T09:41:56.449Z,96.56
2023-02-12T09:42:35.432Z,96.36
2023-02-12T09:43:35.415Z,96.27
2023-02-12T09:44:35.349Z,96.08
2023-02-12T09:45:35.322Z,95.89
2023-02-12T09:46:35.292Z,95.98
2023-02-12T09:47:56.235Z,95.98
2023-02-12T09:48:35.212Z,96.08
2023-02-12T09:49:35.182Z,96.56
2023-02-12T09:50:35.133Z,96.36
2023-02-12T09:51:35.098Z,96.56
2023-02-12T09:52:35.074Z,96.36
2023-02-12T09:53:56.029Z,96.27
2023-02-12T09:54:34.989Z,96.36
2023-02-12T09:55:34.956Z,96.32
2023-02-12T09:56:34.916Z,96.22
2023-02-12T09:57:34.886Z,96.03
2023-02-12T09:58:34.852Z,96.08
2023-02-12T09:59:55.806Z,96.08
2023-02-12T10:00:34.773Z,97.22
2023-02-12T10:01:34.825Z,96.56
2023-02-12T10:02:34.719Z,96.27
2023-02-12T10:03:34.669Z,96.27
2023-02-12T10:04:34.709Z,96.36
2023-02-12T10:05:55.916Z,96.17
2023-02-12T10:06:34.559Z,96.27
2023-02-12T10:07:34.528Z,96.36
2023-02-12T10:08:34.555Z,96.36
2023-02-12T10:09:34.453Z,96.27
2023-02-12T10:10:34.419Z,96.36
2023-02-12T10:11:55.375Z,96.36
2023-02-12T10:12:34.347Z,96.36
2023-02-12T10:13:34.316Z,96.08
2023-02-12T10:14:34.284Z,96.08
2023-02-12T10:15:34.300Z,95.89
2023-02-12T10:16:36.594Z,95.98
2023-02-12T10:17:55.173Z,96.08
2023-02-12T10:18:34.130Z,96.46
2023-02-12T10:19:34.097Z,96.17
2023-02-12T10:20:34.062Z,96.41
2023-02-12T10:21:34.042Z,96.17
2023-02-12T10:22:33.991Z,96.41
2023-02-12T10:23:54.949Z,96.41
2023-02-12T10:24:33.925Z,95.98
2023-02-12T10:25:33.897Z,95.94
2023-02-12T10:26:33.853Z,96.32
2023-02-12T10:27:33.809Z,96.13
2023-02-12T10:28:33.834Z,96.03
2023-02-12T10:29:54.743Z,96.22
2023-02-12T10:30:33.703Z,96.22
2023-02-12T10:31:33.792Z,96.03
2023-02-12T10:32:33.631Z,95.84
2023-02-12T10:33:34.995Z,95.75
2023-02-12T10:34:33.562Z,96.03
2023-02-12T10:35:54.971Z,95.46
2023-02-12T10:36:33.483Z,96.41
2023-02-12T10:37:33.455Z,95.46
2023-02-12T10:38:33.409Z,95.65
2023-02-12T10:39:33.383Z,95.75
2023-02-12T10:40:33.347Z,95.75
2023-02-12T10:41:54.303Z,95.46
2023-02-12T10:42:33.269Z,95.46
2023-02-12T10:43:33.229Z,95.65
2023-02-12T10:44:33.220Z,95.65
2023-02-12T10:45:33.168Z,96.03
2023-02-12T10:46:33.229Z,95.65
2023-02-12T10:47:54.124Z,95.46
2023-02-12T10:48:33.056Z,95.89
2023-02-12T10:49:33.037Z,95.89
2023-02-12T10:50:32.985Z,95.70
2023-02-12T10:51:32.951Z,95.51
2023-02-12T10:52:32.940Z,95.32
2023-02-12T10:53:53.881Z,95.32
2023-02-12T10:54:32.851Z,95.51
2023-02-12T10:55:32.818Z,95.61
2023-02-12T10:56:32.772Z,95.22
2023-02-12T10:57:32.735Z,95.41
2023-02-12T10:58:32.701Z,95.51
2023-02-12T10:59:53.668Z,95.41
2023-02-12T11:00:32.639Z,95.51
2023-02-12T11:01:32.635Z,95.61
2023-02-12T11:02:32.559Z,95.51
2023-02-12T11:03:32.523Z,95.51
2023-02-12T11:04:32.535Z,95.51
2023-02-12T11:05:53.499Z,95.41
2023-02-12T11:06:32.442Z,95.32
2023-02-12T11:07:32.386Z,94.74
2023-02-12T11:08:32.347Z,95.12
2023-02-12T11:09:32.324Z,94.65
2023-02-12T11:10:32.281Z,95.12
2023-02-12T11:11:53.251Z,95.22
2023-02-12T11:12:32.208Z,95.32
2023-02-12T11:13:32.177Z,95.41
2023-02-12T11:14:32.137Z,95.22
2023-02-12T11:15:32.108Z,94.93
2023-02-12T11:16:32.125Z,94.74
2023-02-12T11:17:53.066Z,95.32
2023-02-12T11:18:32.000Z,94.74
2023-02-12T11:19:31.960Z,95.51
2023-02-12T11:20:31.922Z,94.93
2023-02-12T11:21:31.890Z,94.65
2023-02-12T11:22:31.859Z,94.56
2023-02-12T11:23:52.823Z,94.93
2023-02-12T11:24:31.813Z,94.36
2023-02-12T11:25:31.757Z,94.56
2023-02-12T11:26:31.719Z,94.98
2023-02-12T11:27:31.684Z,94.79
2023-02-12T11:28:31.762Z,94.60
2023-02-12T11:29:52.605Z,94.98
2023-02-12T11:30:31.574Z,94.41
2023-02-12T11:31:31.706Z,94.60
2023-02-12T11:32:31.505Z,94.70
2023-02-12T11:33:31.473Z,94.41
2023-02-12T11:34:31.447Z,94.60
2023-02-12T11:35:52.409Z,94.70
2023-02-12T11:36:31.360Z,94.60
2023-02-12T11:37:31.332Z,93.93
2023-02-12T11:38:31.304Z,94.22
2023-02-12T11:39:31.261Z,94.03
2023-02-12T11:40:31.229Z,94.22
2023-02-12T11:41:52.193Z,93.93
2023-02-12T11:42:31.157Z,93.84
2023-02-12T11:43:31.149Z,93.93
2023-02-12T11:44:31.091Z,94.31
2023-02-12T11:45:31.056Z,94.27
2023-02-12T11:46:31.045Z,94.27
2023-02-12T11:47:51.996Z,94.31
2023-02-12T11:48:30.946Z,93.60
2023-02-12T11:49:30.921Z,94.27
2023-02-12T11:50:30.894Z,93.79
2023-02-12T11:51:30.848Z,94.27
2023-02-12T11:52:30.812Z,93.98
2023-02-12T11:53:51.774Z,93.74
2023-02-12T11:54:30.753Z,93.41
2023-02-12T11:55:33.395Z,93.84
2023-02-12T11:56:30.673Z,93.65
2023-02-12T11:57:30.689Z,93.65
2023-02-12T11:58:30.600Z,93.79
2023-02-12T11:59:51.577Z,93.65
2023-02-12T12:00:30.534Z,93.74
2023-02-12T12:01:30.535Z,93.88
2023-02-12T12:02:30.464Z,94.07
2023-02-12T12:03:30.519Z,93.70
2023-02-12T12:04:30.402Z,93.70
2023-02-12T12:05:51.358Z,93.21
2023-02-12T12:06:30.326Z,93.31
2023-02-12T12:07:30.289Z,93.60
2023-02-12T12:08:30.256Z,93.70
2023-02-12T12:09:30.219Z,93.70
2023-02-12T12:10:30.187Z,93.50
2023-02-12T12:11:51.145Z,93.31
2023-02-12T12:12:30.116Z,93.31
2023-02-12T12:13:30.093Z,93.21
2023-02-12T12:14:30.054Z,93.21
2023-02-12T12:15:30.021Z,93.12
2023-02-12T12:16:30.040Z,93.41
2023-02-12T12:17:50.946Z,92.74
2023-02-12T12:18:29.912Z,93.50
2023-02-12T12:19:29.886Z,93.50
2023-02-12T12:20:29.854Z,93.36
2023-02-12T12:21:29.806Z,92.79
2023-02-12T12:22:29.771Z,92.79
2023-02-12T12:23:50.730Z,92.88
2023-02-12T12:24:29.706Z,92.88
2023-02-12T12:25:29.667Z,93.17
2023-02-12T12:26:29.649Z,92.79
2023-02-12T12:27:29.597Z,92.79
2023-02-12T12:28:29.660Z,92.79
2023-02-12T12:29:50.536Z,93.26
2023-02-12T12:30:29.496Z,93.07
2023-02-12T12:31:29.494Z,93.17
2023-02-12T12:32:29.434Z,92.88
2023-02-12T12:33:29.391Z,93.26
2023-02-12T12:34:29.354Z,93.07
2023-02-12T12:35:50.335Z,93.26
2023-02-12T12:36:29.288Z,93.46
2023-02-12T12:37:29.252Z,92.93
2023-02-12T12:38:29.221Z,93.02
2023-02-12T12:39:29.193Z,93.02
2023-02-12T12:40:29.149Z,93.21
2023-02-12T12:41:50.106Z,93.21
2023-02-12T12:42:29.087Z,93.12
2023-02-12T12:43:29.077Z,92.26
2023-02-12T12:44:29.013Z,92.26
2023-02-12T12:45:29.005Z,91.97
2023-02-12T12:46:28.957Z,92.55
2023-02-12T12:47:49.904Z,92.74
2023-02-12T12:48:28.882Z,92.45
2023-02-12T12:49:30.578Z,91.78
2023-02-12T12:50:28.812Z,91.97
2023-02-12T12:51:28.765Z,91.59
2023-02-12T12:52:28.744Z,92.36
2023-02-12T12:53:49.697Z,92.07